Time,TemperatureF,DewpointF,PressureIn,WindDirection,WindDirectionDegrees,WindSpeedMPH,WindSpeedGustMPH,Humidity,HourlyPrecipIn,Conditions,Clouds,dailyrainin,SolarRadiationWatts/m^2,SoftwareType,DateUTC
2013-06-15 00:02:00,58.0,56.0,-100.00,NE,45,1.0,5.0,92,0.00,,,0.00,0.000000,,2013-06-15 04:02:00,
2013-06-15 00:34:00,55.0,54.0,-100.00,WNW,292,0.0,3.0,96,0.00,,,0.00,0.000000,,2013-06-15 04:34:00,
2013-06-15 00:43:00,55.0,54.0,-100.00,WNW,292,0.0,3.0,96,0.00,,,0.00,0.000000,,2013-06-15 04:43:00,
2013-06-15 00:54:00,55.0,54.0,-100.00,WNW,292,0.0,3.0,96,0.00,,,0.00,0.000000,,2013-06-15 04:54:00,
2013-06-15 01:02:00,55.0,54.0,-100.00,WNW,292,0.0,3.0,96,0.00,,,0.00,0.000000,,2013-06-15 05:02:00,
2013-06-15 01:34:00,53.0,52.0,-100.00,SW,214,0.0,3.0,98,0.00,,,0.00,0.000000,,2013-06-15 05:34:00,
2013-06-15 01:43:00,53.0,52.0,-100.00,SW,214,0.0,3.0,98,0.00,,,0.00,0.000000,,2013-06-15 05:43:00,
2013-06-15 01:52:00,53.0,52.0,-100.00,SW,214,0.0,3.0,98,0.00,,,0.00,0.000000,,2013-06-15 05:52:00,
2013-06-15 02:02:00,53.0,52.0,-100.00,SW,214,0.0,3.0,98,0.00,,,0.00,0.000000,,2013-06-15 06:02:00,
2013-06-15 02:33:00,52.0,51.0,-100.00,SW,217,0.0,2.0,98,0.00,,,0.00,0.000000,,2013-06-15 06:33:00,
2013-06-15 02:43:00,52.0,51.0,-100.00,SW,217,0.0,2.0,98,0.00,,,0.00,0.000000,,2013-06-15 06:43:00,
2013-06-15 02:53:00,52.0,51.0,-100.00,SW,217,0.0,2.0,98,0.00,,,0.00,0.000000,,2013-06-15 06:53:00,
2013-06-15 03:01:00,52.0,51.0,-100.00,SW,217,0.0,2.0,98,0.00,,,0.00,0.000000,,2013-06-15 07:01:00,
2013-06-15 03:33:00,51.0,50.0,-100.00,NW,325,0.0,0.0,98,0.00,,,0.00,0.000000,,2013-06-15 07:33:00,
2013-06-15 03:43:00,51.0,50.0,-100.00,NW,325,0.0,0.0,98,0.00,,,0.00,0.000000,,2013-06-15 07:43:00,
2013-06-15 03:54:00,51.0,50.0,-100.00,NW,325,0.0,0.0,98,0.00,,,0.00,0.000000,,2013-06-15 07:54:00,
2013-06-15 04:02:00,51.0,50.0,-100.00,NW,325,0.0,0.0,98,0.00,,,0.00,0.000000,,2013-06-15 08:02:00,
2013-06-15 04:33:00,51.0,51.0,-100.00,NE,39,0.0,0.0,99,0.00,,,0.00,0.000000,,2013-06-15 08:33:00,
2013-06-15 04:43:00,51.0,51.0,-100.00,NE,39,0.0,0.0,99,0.00,,,0.00,0.000000,,2013-06-15 08:43:00,
2013-06-15 04:53:00,51.0,51.0,-100.00,NE,39,0.0,0.0,99,0.00,,,0.00,0.000000,,2013-06-15 08:53:00,
2013-06-15 05:02:00,51.0,51.0,-100.00,NE,39,0.0,0.0,99,0.00,,,0.00,0.000000,,2013-06-15 09:02:00,
2013-06-15 05:43:00,51.0,51.0,-100.00,SSW,198,0.0,2.0,99,0.00,,,0.00,0.000000,,2013-06-15 09:43:00,
2013-06-15 05:52:00,51.0,51.0,-100.00,SSW,198,0.0,2.0,99,0.00,,,0.00,0.000000,,2013-06-15 09:52:00,
2013-06-15 06:02:00,51.0,51.0,-100.00,SSW,198,0.0,2.0,99,0.00,,,0.00,0.000000,,2013-06-15 10:02:00,
2013-06-15 06:44:00,52.0,52.0,-100.00,South,190,0.0,2.0,99,0.00,,,0.00,3.000000,,2013-06-15 10:44:00,
2013-06-15 06:53:00,52.0,52.0,-100.00,South,190,0.0,2.0,99,0.00,,,0.00,3.000000,,2013-06-15 10:53:00,
2013-06-15 07:02:00,52.0,52.0,-100.00,South,190,0.0,2.0,99,0.00,,,0.00,3.000000,,2013-06-15 11:02:00,
2013-06-15 07:33:00,52.0,52.0,-100.00,South,174,0.0,2.0,99,0.00,,,0.00,42.000000,,2013-06-15 11:33:00,
2013-06-15 07:43:00,52.0,52.0,-100.00,South,174,0.0,2.0,99,0.00,,,0.00,42.000000,,2013-06-15 11:43:00,
2013-06-15 07:53:00,52.0,52.0,-100.00,South,174,0.0,2.0,99,0.00,,,0.00,42.000000,,2013-06-15 11:53:00,
2013-06-15 08:02:00,52.0,52.0,-100.00,South,174,0.0,2.0,99,0.00,,,0.00,42.000000,,2013-06-15 12:02:00,
2013-06-15 08:44:00,54.0,53.0,-100.00,SSE,165,1.0,3.0,98,0.00,,,0.00,124.000000,,2013-06-15 12:44:00,
2013-06-15 08:53:00,54.0,53.0,-100.00,SSE,165,1.0,3.0,98,0.00,,,0.00,124.000000,,2013-06-15 12:53:00,
2013-06-15 09:02:00,54.0,53.0,-100.00,SSE,165,1.0,3.0,98,0.00,,,0.00,124.000000,,2013-06-15 13:02:00,
2013-06-15 09:44:00,56.0,55.0,-100.00,South,182,1.0,4.0,97,0.00,,,0.00,233.000000,,2013-06-15 13:44:00,
2013-06-15 09:53:00,56.0,55.0,-100.00,South,182,1.0,4.0,97,0.00,,,0.00,233.000000,,2013-06-15 13:53:00,
2013-06-15 10:02:00,56.0,55.0,-100.00,South,182,1.0,4.0,97,0.00,,,0.00,233.000000,,2013-06-15 14:02:00,
2013-06-15 10:34:00,66.0,58.0,-100.00,SW,221,2.0,4.0,76,0.00,,,0.00,648.000000,,2013-06-15 14:34:00,
2013-06-15 10:43:00,66.0,58.0,-100.00,SW,221,2.0,4.0,76,0.00,,,0.00,648.000000,,2013-06-15 14:43:00,
2013-06-15 10:54:00,66.0,58.0,-100.00,SW,221,2.0,4.0,76,0.00,,,0.00,648.000000,,2013-06-15 14:54:00,
2013-06-15 11:02:00,66.0,58.0,-100.00,SW,221,2.0,4.0,76,0.00,,,0.00,648.000000,,2013-06-15 15:02:00,
2013-06-15 11:33:00,70.0,54.0,-100.00,NW,314,3.0,11.0,57,0.00,,,0.00,858.000000,,2013-06-15 15:33:00,
2013-06-15 11:43:00,70.0,54.0,-100.00,NW,314,3.0,11.0,57,0.00,,,0.00,858.000000,,2013-06-15 15:43:00,
2013-06-15 11:53:00,70.0,54.0,-100.00,NW,314,3.0,11.0,57,0.00,,,0.00,858.000000,,2013-06-15 15:53:00,
2013-06-15 12:02:00,70.0,54.0,-100.00,NW,314,3.0,11.0,57,0.00,,,0.00,858.000000,,2013-06-15 16:02:00,
2013-06-15 12:33:00,73.0,53.0,-100.00,WNW,293,3.0,10.0,49,0.00,,,0.00,1032.000000,,2013-06-15 16:33:00,
2013-06-15 12:43:00,73.0,53.0,-100.00,WNW,293,3.0,10.0,49,0.00,,,0.00,1032.000000,,2013-06-15 16:43:00,
2013-06-15 12:54:00,73.0,53.0,-100.00,WNW,293,3.0,10.0,49,0.00,,,0.00,1032.000000,,2013-06-15 16:54:00,
2013-06-15 13:02:00,73.0,53.0,-100.00,WNW,293,3.0,10.0,49,0.00,,,0.00,1032.000000,,2013-06-15 17:02:00,
2013-06-15 13:32:00,73.0,50.0,-100.00,NW,325,4.0,15.0,44,0.00,,,0.00,1089.000000,,2013-06-15 17:32:00,
2013-06-15 13:43:00,73.0,50.0,-100.00,NW,325,4.0,15.0,44,0.00,,,0.00,1089.000000,,2013-06-15 17:43:00,
2013-06-15 13:52:00,73.0,50.0,-100.00,NW,325,4.0,15.0,44,0.00,,,0.00,1089.000000,,2013-06-15 17:52:00,
2013-06-15 14:01:00,73.0,50.0,-100.00,NW,325,4.0,15.0,44,0.00,,,0.00,1089.000000,,2013-06-15 18:01:00,
2013-06-15 14:33:00,73.0,49.0,-100.00,NNW,343,5.0,14.0,43,0.00,,,0.00,992.000000,,2013-06-15 18:33:00,
2013-06-15 14:43:00,73.0,49.0,-100.00,NNW,343,5.0,14.0,43,0.00,,,0.00,992.000000,,2013-06-15 18:43:00,
2013-06-15 14:53:00,73.0,49.0,-100.00,NNW,343,5.0,14.0,43,0.00,,,0.00,992.000000,,2013-06-15 18:53:00,
2013-06-15 15:02:00,73.0,49.0,-100.00,NNW,343,5.0,14.0,43,0.00,,,0.00,992.000000,,2013-06-15 19:02:00,
2013-06-15 15:33:00,74.0,48.0,-100.00,NW,323,5.0,11.0,40,0.00,,,0.00,892.000000,,2013-06-15 19:33:00,
2013-06-15 15:43:00,74.0,48.0,-100.00,NW,323,5.0,11.0,40,0.00,,,0.00,892.000000,,2013-06-15 19:43:00,
2013-06-15 15:53:00,74.0,48.0,-100.00,NW,323,5.0,11.0,40,0.00,,,0.00,892.000000,,2013-06-15 19:53:00,
2013-06-15 16:02:00,74.0,48.0,-100.00,NW,323,5.0,11.0,40,0.00,,,0.00,892.000000,,2013-06-15 20:02:00,
2013-06-15 16:33:00,73.0,52.0,-100.00,NNW,333,4.0,8.0,47,0.00,,,0.00,563.000000,,2013-06-15 20:33:00,
2013-06-15 16:43:00,73.0,52.0,-100.00,NNW,333,4.0,8.0,47,0.00,,,0.00,563.000000,,2013-06-15 20:43:00,
2013-06-15 16:53:00,73.0,52.0,-100.00,NNW,333,4.0,8.0,47,0.00,,,0.00,563.000000,,2013-06-15 20:53:00,
2013-06-15 17:02:00,73.0,52.0,-100.00,NNW,333,4.0,8.0,47,0.00,,,0.00,563.000000,,2013-06-15 21:02:00,
2013-06-15 17:34:00,74.0,53.0,-100.00,NNW,329,2.0,8.0,48,0.00,,,0.00,598.000000,,2013-06-15 21:34:00,
2013-06-15 17:42:00,74.0,53.0,-100.00,NNW,329,2.0,8.0,48,0.00,,,0.00,598.000000,,2013-06-15 21:42:00,
2013-06-15 17:53:00,74.0,53.0,-100.00,NNW,329,2.0,8.0,48,0.00,,,0.00,598.000000,,2013-06-15 21:53:00,
2013-06-15 18:01:00,74.0,53.0,-100.00,NNW,329,2.0,8.0,48,0.00,,,0.00,598.000000,,2013-06-15 22:01:00,
2013-06-15 18:33:00,75.0,52.0,-100.00,NW,318,2.0,10.0,44,0.00,,,0.00,554.000000,,2013-06-15 22:33:00,
2013-06-15 18:43:00,75.0,52.0,-100.00,NW,318,2.0,10.0,44,0.00,,,0.00,554.000000,,2013-06-15 22:43:00,
2013-06-15 18:53:00,75.0,52.0,-100.00,NW,318,2.0,10.0,44,0.00,,,0.00,554.000000,,2013-06-15 22:53:00,
2013-06-15 19:02:00,75.0,52.0,-100.00,NW,318,2.0,10.0,44,0.00,,,0.00,554.000000,,2013-06-15 23:02:00,
2013-06-15 19:33:00,74.0,52.0,-100.00,NW,322,2.0,8.0,46,0.00,,,0.00,359.000000,,2013-06-15 23:33:00,
2013-06-15 19:43:00,74.0,52.0,-100.00,NW,322,2.0,8.0,46,0.00,,,0.00,359.000000,,2013-06-15 23:43:00,
2013-06-15 19:53:00,74.0,52.0,-100.00,NW,322,2.0,8.0,46,0.00,,,0.00,359.000000,,2013-06-15 23:53:00,
2013-06-15 20:02:00,74.0,52.0,-100.00,NW,322,2.0,8.0,46,0.00,,,0.00,359.000000,,2013-06-16 00:02:00,
2013-06-15 20:34:00,68.0,52.0,-100.00,NNE,16,2.0,7.0,56,0.00,,,0.00,129.000000,,2013-06-16 00:34:00,
2013-06-15 20:43:00,68.0,52.0,-100.00,NNE,16,2.0,7.0,56,0.00,,,0.00,129.000000,,2013-06-16 00:43:00,
2013-06-15 20:52:00,68.0,52.0,-100.00,NNE,16,2.0,7.0,56,0.00,,,0.00,129.000000,,2013-06-16 00:52:00,
2013-06-15 21:02:00,68.0,52.0,-100.00,NNE,16,2.0,7.0,56,0.00,,,0.00,129.000000,,2013-06-16 01:02:00,
2013-06-15 21:33:00,61.0,55.0,-100.00,SW,214,0.0,4.0,80,0.00,,,0.00,14.000000,,2013-06-16 01:33:00,
2013-06-15 21:43:00,61.0,55.0,-100.00,SW,214,0.0,4.0,80,0.00,,,0.00,14.000000,,2013-06-16 01:43:00,
2013-06-15 21:53:00,61.0,55.0,-100.00,SW,214,0.0,4.0,80,0.00,,,0.00,14.000000,,2013-06-16 01:53:00,
2013-06-15 22:02:00,61.0,55.0,-100.00,SW,214,0.0,4.0,80,0.00,,,0.00,14.000000,,2013-06-16 02:02:00,
2013-06-15 22:33:00,58.0,54.0,-100.00,SSW,204,0.0,0.0,86,0.00,,,0.00,0.000000,,2013-06-16 02:33:00,
2013-06-15 22:43:00,58.0,54.0,-100.00,SSW,204,0.0,0.0,86,0.00,,,0.00,0.000000,,2013-06-16 02:43:00,
2013-06-15 22:53:00,58.0,54.0,-100.00,SSW,204,0.0,0.0,86,0.00,,,0.00,0.000000,,2013-06-16 02:53:00,
2013-06-15 23:02:00,58.0,54.0,-100.00,SSW,204,0.0,0.0,86,0.00,,,0.00,0.000000,,2013-06-16 03:02:00,
2013-06-15 23:34:00,56.0,53.0,-100.00,SW,236,0.0,2.0,89,0.00,,,0.00,0.000000,,2013-06-16 03:34:00,
2013-06-15 23:43:00,56.0,53.0,-100.00,SW,236,0.0,2.0,89,0.00,,,0.00,0.000000,,2013-06-16 03:43:00,
2013-06-15 23:53:00,56.0,53.0,-100.00,SW,236,0.0,2.0,89,0.00,,,0.00,0.000000,,2013-06-16 03:53:00,